Time,TemperatureF,DewpointF,PressureIn,WindDirection,WindDirectionDegrees,WindSpeedMPH,WindSpeedGustMPH,Humidity,HourlyPrecipIn,Conditions,Clouds,dailyrainin,SoftwareType,DateUTC
2013-09-23 00:00:00,62.0,53.0,29.75,ENE,64,0.0,0.0,72,0.00,,,0.00,weatherlink.com 1.10,2013-09-23 05:00:00,
2013-09-23 00:15:00,62.0,53.0,29.75,ENE,64,0.0,0.0,72,0.00,,,0.00,weatherlink.com 1.10,2013-09-23 05:15:00,
2013-09-23 00:30:00,61.5,53.0,29.75,ENE,64,0.0,0.0,74,0.00,,,0.00,weatherlink.com 1.10,2013-09-23 05:30:00,
2013-09-23 00:45:00,61.1,53.0,29.75,ENE,64,0.0,0.0,74,0.00,,,0.00,weatherlink.com 1.10,2013-09-23 05:45:00,
2013-09-23 01:00:00,60.7,53.0,29.75,ENE,64,0.0,0.0,76,0.00,,,0.00,weatherlink.com 1.10,2013-09-23 06:00:00,
2013-09-23 01:15:00,60.5,54.0,29.75,ENE,64,0.0,0.0,78,0.00,,,0.00,weatherlink.com 1.10,2013-09-23 06:15:00,
2013-09-23 01:30:00,60.0,53.0,29.75,ENE,64,0.0,0.0,79,0.00,,,0.00,weatherlink.com 1.10,2013-09-23 06:30:00,
2013-09-23 01:45:00,59.4,54.0,29.75,ENE,64,0.0,0.0,81,0.00,,,0.00,weatherlink.com 1.10,2013-09-23 06:45:00,
2013-09-23 02:00:00,59.2,53.0,29.75,ENE,64,0.0,1.0,81,0.00,,,0.00,weatherlink.com 1.10,2013-09-23 07:00:00,
2013-09-23 02:15:00,59.1,54.0,29.75,ENE,64,0.0,1.0,82,0.00,,,0.00,weatherlink.com 1.10,2013-09-23 07:15:00,
2013-09-23 02:30:00,58.9,53.0,29.75,ENE,64,0.0,0.0,80,0.00,,,0.00,weatherlink.com 1.10,2013-09-23 07:30:00,
2013-09-23 02:45:00,58.9,53.0,29.75,ENE,64,0.0,0.0,81,0.00,,,0.00,weatherlink.com 1.10,2013-09-23 07:45:00,
2013-09-23 03:00:00,58.9,53.0,29.75,ENE,64,0.0,1.0,81,0.00,,,0.00,weatherlink.com 1.10,2013-09-23 08:00:00,
2013-09-23 03:15:00,58.7,53.0,29.75,ENE,64,0.0,0.0,81,0.00,,,0.00,weatherlink.com 1.10,2013-09-23 08:15:00,
2013-09-23 03:30:00,58.5,53.0,29.75,ENE,64,0.0,0.0,82,0.00,,,0.00,weatherlink.com 1.10,2013-09-23 08:30:00,
2013-09-23 03:45:00,58.2,53.0,29.74,ENE,64,0.0,1.0,82,0.00,,,0.00,weatherlink.com 1.10,2013-09-23 08:45:00,
2013-09-23 04:00:00,57.9,53.0,29.74,ENE,64,0.0,0.0,84,0.00,,,0.00,weatherlink.com 1.10,2013-09-23 09:00:00,
2013-09-23 04:15:00,57.3,53.0,29.73,ENE,64,0.0,0.0,85,0.00,,,0.00,weatherlink.com 1.10,2013-09-23 09:15:00,
2013-09-23 04:30:00,56.7,53.0,29.73,ENE,64,0.0,0.0,87,0.00,,,0.00,weatherlink.com 1.10,2013-09-23 09:30:00,
2013-09-23 04:45:00,56.2,53.0,29.73,ENE,64,0.0,0.0,88,0.00,,,0.00,weatherlink.com 1.10,2013-09-23 09:45:00,
2013-09-23 05:00:00,55.8,53.0,29.73,ENE,64,0.0,0.0,89,0.00,,,0.00,weatherlink.com 1.10,2013-09-23 10:00:00,
2013-09-23 05:15:00,55.7,53.0,29.73,ENE,64,0.0,0.0,89,0.00,,,0.00,weatherlink.com 1.10,2013-09-23 10:15:00,
2013-09-23 05:30:00,55.9,52.0,29.73,ENE,64,0.0,0.0,87,0.00,,,0.00,weatherlink.com 1.10,2013-09-23 10:30:00,
2013-09-23 05:45:00,55.7,52.0,29.73,ENE,64,0.0,0.0,87,0.00,,,0.00,weatherlink.com 1.10,2013-09-23 10:45:00,
2013-09-23 06:00:00,55.3,52.0,29.73,ENE,64,0.0,0.0,88,0.00,,,0.00,weatherlink.com 1.10,2013-09-23 11:00:00,
2013-09-23 06:15:00,55.0,52.0,29.74,ENE,64,0.0,0.0,89,0.00,,,0.00,weatherlink.com 1.10,2013-09-23 11:15:00,
2013-09-23 06:30:00,54.5,51.0,29.74,ENE,64,0.0,0.0,89,0.00,,,0.00,weatherlink.com 1.10,2013-09-23 11:30:00,
2013-09-23 06:45:00,54.0,51.0,29.74,ENE,64,0.0,0.0,90,0.00,,,0.00,weatherlink.com 1.10,2013-09-23 11:45:00,
2013-09-23 07:00:00,53.6,51.0,29.75,ENE,64,0.0,0.0,91,0.00,,,0.00,weatherlink.com 1.10,2013-09-23 12:00:00,
2013-09-23 07:15:00,53.3,51.0,29.75,ENE,64,0.0,0.0,92,0.00,,,0.00,weatherlink.com 1.10,2013-09-23 12:15:00,
2013-09-23 07:30:00,53.2,51.0,29.75,ENE,64,0.0,0.0,92,0.00,,,0.00,weatherlink.com 1.10,2013-09-23 12:30:00,
2013-09-23 07:45:00,53.3,51.0,29.75,ENE,64,0.0,0.0,93,0.00,,,0.00,weatherlink.com 1.10,2013-09-23 12:45:00,
2013-09-23 08:00:00,55.0,53.0,29.76,ENE,64,0.0,0.0,94,0.00,,,0.00,weatherlink.com 1.10,2013-09-23 13:00:00,
2013-09-23 08:16:00,56.4,54.0,29.76,ENE,64,0.0,0.0,92,0.00,,,0.00,weatherlink.com 1.10,2013-09-23 13:16:00,
2013-09-23 08:31:00,58.6,55.0,29.76,ENE,64,0.0,1.0,86,0.00,,,0.00,weatherlink.com 1.10,2013-09-23 13:31:00,
2013-09-23 08:46:00,61.0,55.0,29.77,ENE,64,0.0,2.0,80,0.00,,,0.00,weatherlink.com 1.10,2013-09-23 13:46:00,
2013-09-23 09:01:00,62.8,56.0,29.77,ENE,64,0.0,2.0,77,0.00,,,0.00,weatherlink.com 1.10,2013-09-23 14:01:00,
2013-09-23 09:16:00,64.5,55.0,29.77,ENE,64,0.0,1.0,72,0.00,,,0.00,weatherlink.com 1.10,2013-09-23 14:16:00,
2013-09-23 09:31:00,66.6,56.0,29.77,ENE,64,1.0,3.0,68,0.00,,,0.00,weatherlink.com 1.10,2013-09-23 14:31:00,
2013-09-23 09:46:00,68.7,56.0,29.77,ENE,64,0.0,3.0,65,0.00,,,0.00,weatherlink.com 1.10,2013-09-23 14:46:00,
2013-09-23 10:01:00,70.0,56.0,29.77,ENE,64,1.0,4.0,62,0.00,,,0.00,weatherlink.com 1.10,2013-09-23 15:01:00,
2013-09-23 10:16:00,71.4,57.0,29.77,ENE,64,2.0,3.0,61,0.00,,,0.00,weatherlink.com 1.10,2013-09-23 15:16:00,
2013-09-23 10:31:00,72.9,56.0,29.77,ENE,66,1.0,4.0,56,0.00,,,0.00,weatherlink.com 1.10,2013-09-23 15:31:00,
2013-09-23 10:46:00,74.6,56.0,29.77,ENE,69,1.0,4.0,52,0.00,,,0.00,weatherlink.com 1.10,2013-09-23 15:46:00,
2013-09-23 11:01:00,76.4,57.0,29.77,ENE,69,3.0,4.0,52,0.00,,,0.00,weatherlink.com 1.10,2013-09-23 16:01:00,
2013-09-23 11:16:00,77.8,58.0,29.77,ENE,65,1.0,4.0,50,0.00,,,0.00,weatherlink.com 1.10,2013-09-23 16:16:00,
2013-09-23 11:31:00,77.9,57.0,29.76,NNW,340,2.0,4.0,48,0.00,,,0.00,weatherlink.com 1.10,2013-09-23 16:31:00,
2013-09-23 11:46:00,78.8,57.0,29.75,NNW,339,2.0,4.0,48,0.00,,,0.00,weatherlink.com 1.10,2013-09-23 16:46:00,
2013-09-23 12:01:00,80.0,56.0,29.75,NNE,17,0.0,3.0,44,0.00,,,0.00,weatherlink.com 1.10,2013-09-23 17:01:00,
2013-09-23 12:17:00,81.0,56.0,29.75,SE,138,1.0,6.0,42,0.00,,,0.00,weatherlink.com 1.10,2013-09-23 17:17:00,
2013-09-23 12:32:00,81.9,52.0,29.75,SSE,161,6.0,6.0,35,0.00,,,0.00,weatherlink.com 1.10,2013-09-23 17:32:00,
2013-09-23 12:47:00,82.6,54.0,29.74,South,184,0.0,4.0,37,0.00,,,0.00,weatherlink.com 1.10,2013-09-23 17:47:00,
2013-09-23 13:02:00,82.8,48.0,29.74,SW,214,0.0,6.0,30,0.00,,,0.00,weatherlink.com 1.10,2013-09-23 18:02:00,
2013-09-23 13:17:00,83.0,49.0,29.73,South,190,0.0,7.0,30,0.00,,,0.00,weatherlink.com 1.10,2013-09-23 18:17:00,
2013-09-23 13:32:00,83.7,51.0,29.73,South,186,3.0,8.0,32,0.00,,,0.00,weatherlink.com 1.10,2013-09-23 18:32:00,
2013-09-23 13:47:00,84.2,48.0,29.72,South,187,2.0,7.0,28,0.00,,,0.00,weatherlink.com 1.10,2013-09-23 18:47:00,
2013-09-23 14:02:00,84.5,49.0,29.71,South,186,2.0,6.0,29,0.00,,,0.00,weatherlink.com 1.10,2013-09-23 19:02:00,
2013-09-23 14:17:00,85.4,51.0,29.71,South,186,4.0,4.0,30,0.00,,,0.00,weatherlink.com 1.10,2013-09-23 19:17:00,
2013-09-23 14:32:00,85.3,51.0,29.70,South,180,2.0,9.0,30,0.00,,,0.00,weatherlink.com 1.10,2013-09-23 19:32:00,
2013-09-23 14:47:00,85.9,51.0,29.70,South,182,2.0,6.0,30,0.00,,,0.00,weatherlink.com 1.10,2013-09-23 19:47:00,
2013-09-23 15:02:00,86.4,51.0,29.69,South,178,5.0,7.0,29,0.00,,,0.00,weatherlink.com 1.10,2013-09-23 20:02:00,
2013-09-23 15:17:00,86.6,52.0,29.68,SSE,153,1.0,7.0,30,0.00,,,0.00,weatherlink.com 1.10,2013-09-23 20:17:00,
2013-09-23 15:32:00,87.3,51.0,29.68,SSE,163,3.0,6.0,29,0.00,,,0.00,weatherlink.com 1.10,2013-09-23 20:32:00,
2013-09-23 15:47:00,87.2,51.0,29.67,SSE,157,2.0,5.0,29,0.00,,,0.00,weatherlink.com 1.10,2013-09-23 20:47:00,
2013-09-23 16:02:00,87.8,54.0,29.67,SSE,156,1.0,5.0,32,0.00,,,0.00,weatherlink.com 1.10,2013-09-23 21:02:00,
2013-09-23 16:17:00,88.1,52.0,29.67,SSE,147,1.0,4.0,29,0.00,,,0.00,weatherlink.com 1.10,2013-09-23 21:17:00,
2013-09-23 16:32:00,88.3,52.0,29.67,SE,138,3.0,5.0,29,0.00,,,0.00,weatherlink.com 1.10,2013-09-23 21:32:00,
2013-09-23 16:47:00,88.6,53.0,29.66,SSE,150,1.0,6.0,30,0.00,,,0.00,weatherlink.com 1.10,2013-09-23 21:47:00,
2013-09-23 17:02:00,88.6,53.0,29.66,SSE,150,2.0,7.0,29,0.00,,,0.00,weatherlink.com 1.10,2013-09-23 22:02:00,
2013-09-23 17:17:00,89.0,51.0,29.66,SE,142,4.0,7.0,27,0.00,,,0.00,weatherlink.com 1.10,2013-09-23 22:17:00,
2013-09-23 17:32:00,88.7,51.0,29.66,SE,142,2.0,6.0,27,0.00,,,0.00,weatherlink.com 1.10,2013-09-23 22:32:00,
2013-09-23 17:47:00,88.4,49.0,29.66,SE,142,2.0,6.0,26,0.00,,,0.00,weatherlink.com 1.10,2013-09-23 22:47:00,
2013-09-23 18:02:00,88.5,52.0,29.66,SE,142,4.0,4.0,29,0.00,,,0.00,weatherlink.com 1.10,2013-09-23 23:02:00,
2013-09-23 18:17:00,87.9,51.0,29.66,SE,142,2.0,5.0,28,0.00,,,0.00,weatherlink.com 1.10,2013-09-23 23:17:00,
2013-09-23 18:32:00,87.5,52.0,29.66,SE,142,0.0,2.0,30,0.00,,,0.00,weatherlink.com 1.10,2013-09-23 23:32:00,
2013-09-23 18:47:00,86.6,53.0,29.67,SE,142,0.0,3.0,32,0.00,,,0.00,weatherlink.com 1.10,2013-09-23 23:47:00,
2013-09-23 19:02:00,85.8,54.0,29.67,SE,142,0.0,1.0,33,0.00,,,0.00,weatherlink.com 1.10,2013-09-24 00:02:00,
2013-09-23 19:17:00,84.3,53.0,29.67,SE,142,0.0,0.0,34,0.00,,,0.00,weatherlink.com 1.10,2013-09-24 00:17:00,
2013-09-23 19:32:00,82.5,53.0,29.67,SE,142,0.0,0.0,36,0.00,,,0.00,weatherlink.com 1.10,2013-09-24 00:32:00,
2013-09-23 19:47:00,80.3,55.0,29.67,SE,142,0.0,1.0,42,0.00,,,0.00,weatherlink.com 1.10,2013-09-24 00:47:00,
2013-09-23 20:02:00,78.3,58.0,29.68,SE,142,0.0,0.0,49,0.00,,,0.00,weatherlink.com 1.10,2013-09-24 01:02:00,
2013-09-23 20:17:00,76.6,55.0,29.68,SE,142,0.0,0.0,48,0.00,,,0.00,weatherlink.com 1.10,2013-09-24 01:17:00,
2013-09-23 20:32:00,75.1,55.0,29.69,SE,142,0.0,0.0,49,0.00,,,0.00,weatherlink.com 1.10,2013-09-24 01:32:00,
2013-09-23 20:47:00,74.8,54.0,29.70,SE,142,0.0,0.0,49,0.00,,,0.00,weatherlink.com 1.10,2013-09-24 01:47:00,
2013-09-23 21:02:00,74.2,55.0,29.70,SE,142,0.0,0.0,51,0.00,,,0.00,weatherlink.com 1.10,2013-09-24 02:02:00,
2013-09-23 21:17:00,73.4,54.0,29.71,SE,142,0.0,0.0,50,0.00,,,0.00,weatherlink.com 1.10,2013-09-24 02:17:00,
2013-09-23 21:32:00,72.5,55.0,29.72,SE,142,0.0,1.0,55,0.00,,,0.00,weatherlink.com 1.10,2013-09-24 02:32:00,
2013-09-23 21:47:00,72.1,54.0,29.72,SE,142,0.0,0.0,54,0.00,,,0.00,weatherlink.com 1.10,2013-09-24 02:47:00,
2013-09-23 22:02:00,71.9,54.0,29.73,SE,142,0.0,1.0,54,0.00,,,0.00,weatherlink.com 1.10,2013-09-24 03:02:00,
2013-09-23 22:17:00,71.0,56.0,29.73,SE,142,0.0,0.0,59,0.00,,,0.00,weatherlink.com 1.10,2013-09-24 03:17:00,
2013-09-23 22:32:00,69.9,55.0,29.73,SE,142,0.0,0.0,59,0.00,,,0.00,weatherlink.com 1.10,2013-09-24 03:32:00,
2013-09-23 22:47:00,68.9,56.0,29.74,SE,142,0.0,0.0,63,0.00,,,0.00,weatherlink.com 1.10,2013-09-24 03:47:00,
2013-09-23 23:02:00,68.0,55.0,29.74,SE,142,0.0,0.0,64,0.00,,,0.00,weatherlink.com 1.10,2013-09-24 04:02:00,
2013-09-23 23:17:00,67.5,55.0,29.75,SE,142,0.0,0.0,65,0.00,,,0.00,weatherlink.com 1.10,2013-09-24 04:17:00,
2013-09-23 23:32:00,67.2,57.0,29.75,SE,142,0.0,0.0,69,0.00,,,0.00,weatherlink.com 1.10,2013-09-24 04:32:00,
2013-09-23 23:47:00,67.1,55.0,29.75,SE,142,0.0,0.0,65,0.00,,,0.00,weatherlink.com 1.10,2013-09-24 04:47:00,